createdAt,value
2023-01-29T00:00:23.330Z,-1.59
2023-01-29T00:04:46.375Z,-1.58
2023-01-29T00:08:51.613Z,-1.60
2023-01-29T00:12:56.151Z,-1.64
2023-01-29T00:16:59.597Z,-1.66
2023-01-29T00:21:02.991Z,-1.67
2023-01-29T00:25:07.019Z,-1.69
2023-01-29T00:29:11.038Z,-1.71
2023-01-29T00:33:14.204Z,-1.76
2023-01-29T00:37:17.339Z,-1.77
2023-01-29T00:41:37.910Z,-1.77
2023-01-29T00:45:43.379Z,-1.76
2023-01-29T00:49:46.500Z,-1.78
2023-01-29T00:53:49.747Z,-1.79
2023-01-29T00:57:53.115Z,-1.80
2023-01-29T01:02:16.855Z,-1.80
2023-01-29T01:06:19.534Z,-1.81
2023-01-29T01:10:28.771Z,-1.80
2023-01-29T01:14:35.202Z,-1.81
2023-01-29T01:18:39.748Z,-1.80
2023-01-29T01:22:43.052Z,-1.81
2023-01-29T01:26:46.485Z,-1.81
2023-01-29T01:30:49.747Z,-1.84
2023-01-29T01:34:55.238Z,-1.86
2023-01-29T01:38:58.524Z,-1.85
2023-01-29T01:43:02.535Z,-1.85
2023-01-29T01:47:05.664Z,-1.84
2023-01-29T01:51:09.985Z,-1.84
2023-01-29T01:55:16.388Z,-1.83
2023-01-29T01:59:20.682Z,-1.84
2023-01-29T02:03:43.376Z,-1.85
2023-01-29T02:08:06.717Z,-1.85
2023-01-29T02:12:12.447Z,-1.85
2023-01-29T02:16:15.613Z,-1.87
2023-01-29T02:20:24.777Z,-1.87
2023-01-29T02:25:10.048Z,-1.84
2023-01-29T02:29:27.213Z,-1.85
2023-01-29T02:33:42.491Z,-1.86
2023-01-29T02:37:55.251Z,-1.83
2023-01-29T02:42:03.305Z,-1.81
2023-01-29T02:46:18.578Z,-1.83
2023-01-29T02:50:26.869Z,-1.82
2023-01-29T02:54:37.566Z,-1.83
2023-01-29T02:58:44.775Z,-1.82
2023-01-29T03:02:55.360Z,-1.82
2023-01-29T03:07:04.528Z,-1.81
2023-01-29T03:11:08.504Z,-1.80
2023-01-29T03:15:17.169Z,-1.80
2023-01-29T03:19:25.516Z,-1.80
2023-01-29T03:23:48.934Z,-1.80
2023-01-29T03:28:13.144Z,-1.80
2023-01-29T03:32:18.492Z,-1.80
2023-01-29T03:36:37.958Z,-1.79
2023-01-29T03:40:49.719Z,-1.79
2023-01-29T03:45:01.126Z,-1.78
2023-01-29T03:49:10.706Z,-1.75
2023-01-29T03:53:22.941Z,-1.75
2023-01-29T03:57:35.799Z,-1.74
2023-01-29T04:01:44.388Z,-1.73
2023-01-29T04:05:53.130Z,-1.73
2023-01-29T04:10:01.985Z,-1.72
2023-01-29T04:14:08.806Z,-1.70
2023-01-29T04:18:15.421Z,-1.70
2023-01-29T04:22:23.008Z,-1.68
2023-01-29T04:26:53.355Z,-1.66
2023-01-29T04:31:02.100Z,-1.64
2023-01-29T04:35:24.246Z,-1.64
2023-01-29T04:39:31.929Z,-1.62
2023-01-29T04:43:43.973Z,-1.62
2023-01-29T04:47:52.092Z,-1.63
2023-01-29T04:52:03.680Z,-1.61
2023-01-29T04:56:12.680Z,-1.60
2023-01-29T05:00:22.754Z,-1.61
2023-01-29T05:04:27.828Z,-1.59
2023-01-29T05:08:33.467Z,-1.57
2023-01-29T05:12:38.777Z,-1.58
2023-01-29T05:16:46.840Z,-1.58
2023-01-29T05:20:56.010Z,-1.57
2023-01-29T05:24:59.200Z,-1.56
2023-01-29T05:29:02.417Z,-1.54
2023-01-29T05:33:14.855Z,-1.53
2023-01-29T05:37:17.960Z,-1.53
2023-01-29T05:41:21.301Z,-1.52
2023-01-29T05:45:24.365Z,-1.52
2023-01-29T05:49:28.870Z,-1.50
2023-01-29T05:53:34.960Z,-1.50
2023-01-29T05:57:38.301Z,-1.49
2023-01-29T06:01:41.122Z,-1.47
2023-01-29T06:05:45.743Z,-1.47
2023-01-29T06:09:49.072Z,-1.46
2023-01-29T06:13:51.675Z,-1.45
2023-01-29T06:17:55.428Z,-1.44
2023-01-29T06:22:00.040Z,-1.45
2023-01-29T06:26:03.728Z,-1.47
2023-01-29T06:30:08.280Z,-1.48
2023-01-29T06:34:11.987Z,-1.45
2023-01-29T06:38:16.732Z,-1.39
2023-01-29T06:42:20.772Z,-1.37
2023-01-29T06:46:23.856Z,-1.34
2023-01-29T06:50:27.074Z,-1.30
2023-01-29T06:54:31.681Z,-1.23
2023-01-29T06:58:34.959Z,-1.17
2023-01-29T07:02:38.284Z,-1.11
2023-01-29T07:06:41.699Z,-1.05
2023-01-29T07:10:46.977Z,-1.02
2023-01-29T07:14:49.480Z,-0.97
2023-01-29T07:18:52.574Z,-0.93
2023-01-29T07:22:55.921Z,-0.90
2023-01-29T07:27:00.505Z,-0.83
2023-01-29T07:31:03.689Z,-0.77
2023-01-29T07:35:07.865Z,-0.69
2023-01-29T07:39:10.851Z,-0.71
2023-01-29T07:43:17.802Z,-0.73
2023-01-29T07:47:21.209Z,-0.74
2023-01-29T07:51:24.093Z,-0.53
2023-01-29T07:55:27.406Z,-0.43
2023-01-29T07:59:32.491Z,-0.42
2023-01-29T08:03:36.089Z,-0.29
2023-01-29T08:07:39.415Z,-0.22
2023-01-29T08:11:42.647Z,-0.19
2023-01-29T08:15:47.475Z,-0.25
2023-01-29T08:19:51.646Z,-0.22
2023-01-29T08:23:54.444Z,-0.19
2023-01-29T08:28:01.191Z,-0.17
2023-01-29T08:32:05.925Z,-0.02
2023-01-29T08:36:12.268Z,0.10
2023-01-29T08:40:16.222Z,0.41
2023-01-29T08:44:19.785Z,0.82
2023-01-29T08:48:24.190Z,1.16
2023-01-29T08:52:28.377Z,1.03
2023-01-29T08:56:31.648Z,0.73
2023-01-29T09:00:35.794Z,0.73
2023-01-29T09:04:40.387Z,1.12
2023-01-29T09:08:43.607Z,1.27
2023-01-29T09:12:46.574Z,1.37
2023-01-29T09:16:50.046Z,1.78
2023-01-29T09:20:55.172Z,1.88
2023-01-29T09:24:58.392Z,1.94
2023-01-29T09:29:01.698Z,2.10
2023-01-29T09:33:04.980Z,2.32
2023-01-29T09:37:10.008Z,2.20
2023-01-29T09:41:31.123Z,1.89
2023-01-29T09:45:34.798Z,1.96
2023-01-29T09:49:42.629Z,2.08
2023-01-29T09:53:55.452Z,2.55
2023-01-29T09:58:02.778Z,2.76
2023-01-29T10:02:17.396Z,2.42
2023-01-29T10:06:34.933Z,2.50
2023-01-29T10:10:51.082Z,3.07
2023-01-29T10:15:07.215Z,2.79
2023-01-29T10:19:29.411Z,2.48
2023-01-29T10:23:35.648Z,2.04
2023-01-29T10:27:47.799Z,1.89
2023-01-29T10:31:56.665Z,2.00
2023-01-29T10:36:06.166Z,2.18
2023-01-29T10:40:22.944Z,2.29
2023-01-29T10:44:39.705Z,2.19
2023-01-29T10:48:51.302Z,1.97
2023-01-29T10:53:15.817Z,1.83
2023-01-29T10:57:41.989Z,1.93
2023-01-29T11:01:46.736Z,1.98
2023-01-29T11:05:58.465Z,1.87
2023-01-29T11:10:09.479Z,1.71
2023-01-29T11:14:16.330Z,1.78
2023-01-29T11:18:20.474Z,2.21
2023-01-29T11:22:24.951Z,2.34
2023-01-29T11:26:28.655Z,2.12
2023-01-29T11:30:33.930Z,1.88
2023-01-29T11:34:58.302Z,1.72
2023-01-29T11:39:16.806Z,1.64
2023-01-29T11:43:23.749Z,1.32
2023-01-29T11:47:30.104Z,1.05
2023-01-29T11:51:41.085Z,1.18
2023-01-29T11:55:51.061Z,1.09
2023-01-29T11:59:56.348Z,1.13
2023-01-29T12:03:59.649Z,1.01
2023-01-29T12:08:05.652Z,0.80
2023-01-29T12:12:29.051Z,0.71
2023-01-29T12:16:38.150Z,0.63
2023-01-29T12:20:46.707Z,0.68
2023-01-29T12:24:58.770Z,0.74
2023-01-29T12:29:20.067Z,0.83
2023-01-29T12:33:30.825Z,0.77
2023-01-29T12:37:43.087Z,0.71
2023-01-29T12:41:52.884Z,0.63
2023-01-29T12:45:59.372Z,0.65
2023-01-29T12:50:07.287Z,0.71
2023-01-29T12:54:16.075Z,0.75
2023-01-29T12:58:25.705Z,0.80
2023-01-29T13:02:36.632Z,0.73
2023-01-29T13:06:46.153Z,0.73
2023-01-29T13:10:52.395Z,0.60
2023-01-29T13:15:02.810Z,0.40
2023-01-29T13:19:16.432Z,0.34
2023-01-29T13:23:23.264Z,0.31
2023-01-29T13:27:31.206Z,0.35
2023-01-29T13:31:38.260Z,0.26
2023-01-29T13:35:43.629Z,0.21
2023-01-29T13:39:50.361Z,0.23
2023-01-29T13:43:53.416Z,0.23
2023-01-29T13:48:11.435Z,0.17
2023-01-29T13:52:33.488Z,0.11
2023-01-29T13:56:59.441Z,0.08
2023-01-29T14:01:02.800Z,0.14
2023-01-29T14:05:26.993Z,0.13
2023-01-29T14:10:14.674Z,0.11
2023-01-29T14:14:51.177Z,0.09
2023-01-29T14:18:59.434Z,0.06
2023-01-29T14:23:06.802Z,0.07
2023-01-29T14:27:25.585Z,0.07
2023-01-29T14:31:32.604Z,0.05
2023-01-29T14:35:36.333Z,0.04
2023-01-29T14:39:44.265Z,-0.01
2023-01-29T14:43:49.319Z,-0.03
2023-01-29T14:48:01.503Z,-0.07
2023-01-29T14:52:06.015Z,-0.09
2023-01-29T14:56:15.928Z,-0.13
2023-01-29T15:00:28.111Z,-0.14
2023-01-29T15:04:38.526Z,-0.17
2023-01-29T15:08:47.218Z,-0.25
2023-01-29T15:13:00.301Z,-0.26
2023-01-29T15:17:17.690Z,-0.28
2023-01-29T15:21:22.952Z,-0.27
2023-01-29T15:25:34.027Z,-0.28
2023-01-29T15:29:37.747Z,-0.29
2023-01-29T15:33:46.753Z,-0.28
2023-01-29T15:38:00.828Z,-0.28
2023-01-29T15:42:14.566Z,-0.29
2023-01-29T15:46:26.516Z,-0.29
2023-01-29T15:50:34.380Z,-0.26
2023-01-29T15:54:37.836Z,-0.28
2023-01-29T15:58:41.834Z,-0.28
2023-01-29T16:02:45.193Z,-0.30
2023-01-29T16:06:51.491Z,-0.29
2023-01-29T16:11:00.301Z,-0.29
2023-01-29T16:15:05.771Z,-0.27
2023-01-29T16:19:21.647Z,-0.29
2023-01-29T16:23:28.512Z,-0.27
2023-01-29T16:27:33.814Z,-0.25
2023-01-29T16:31:38.465Z,-0.25
2023-01-29T16:35:42.463Z,-0.23
2023-01-29T16:39:50.454Z,-0.23
2023-01-29T16:43:55.180Z,-0.24
2023-01-29T16:48:03.322Z,-0.21
2023-01-29T16:52:19.194Z,-0.20
2023-01-29T16:56:27.520Z,-0.19
2023-01-29T17:00:34.818Z,-0.18
2023-01-29T17:04:38.107Z,-0.17
2023-01-29T17:08:44.314Z,-0.16
2023-01-29T17:12:55.135Z,-0.17
2023-01-29T17:17:03.699Z,-0.17
2023-01-29T17:21:08.007Z,-0.16
2023-01-29T17:25:15.973Z,-0.16
2023-01-29T17:29:22.317Z,-0.17
2023-01-29T17:33:26.874Z,-0.16
2023-01-29T17:37:34.077Z,-0.18
2023-01-29T17:41:37.299Z,-0.20
2023-01-29T17:45:44.324Z,-0.18
2023-01-29T17:49:48.156Z,-0.20
2023-01-29T17:53:51.408Z,-0.19
2023-01-29T17:57:54.570Z,-0.17
2023-01-29T18:01:59.303Z,-0.17
2023-01-29T18:06:06.992Z,-0.17
2023-01-29T18:10:17.341Z,-0.18
2023-01-29T18:14:20.729Z,-0.18
2023-01-29T18:18:30.480Z,-0.17
2023-01-29T18:22:33.759Z,-0.17
2023-01-29T18:26:39.314Z,-0.18
2023-01-29T18:30:44.662Z,-0.19
2023-01-29T18:34:49.680Z,-0.19
2023-01-29T18:38:54.301Z,-0.19
2023-01-29T18:43:00.099Z,-0.16
2023-01-29T18:47:05.019Z,-0.14
2023-01-29T18:51:09.797Z,-0.16
2023-01-29T18:55:15.848Z,-0.15
2023-01-29T18:59:21.748Z,-0.17
2023-01-29T19:03:25.043Z,-0.18
2023-01-29T19:07:29.361Z,-0.18
2023-01-29T19:11:32.449Z,-0.16
2023-01-29T19:15:38.085Z,-0.18
2023-01-29T19:19:42.360Z,-0.17
2023-01-29T19:23:46.891Z,-0.17
2023-01-29T19:27:50.205Z,-0.16
2023-01-29T19:31:53.569Z,-0.16
2023-01-29T19:35:58.877Z,-0.15
2023-01-29T19:40:03.698Z,-0.14
2023-01-29T19:44:09.637Z,-0.14
2023-01-29T19:48:14.740Z,-0.13
2023-01-29T19:52:41.447Z,-0.12
2023-01-29T19:56:54.317Z,-0.13
2023-01-29T20:00:58.782Z,-0.16
2023-01-29T20:05:03.798Z,-0.09
2023-01-29T20:09:07.221Z,-0.10
2023-01-29T20:13:12.756Z,-0.08
2023-01-29T20:17:17.282Z,-0.10
2023-01-29T20:21:22.686Z,-0.10
2023-01-29T20:25:29.200Z,-0.09
2023-01-29T20:29:33.745Z,-0.08
2023-01-29T20:33:39.483Z,-0.07
2023-01-29T20:37:43.332Z,-0.07
2023-01-29T20:41:49.499Z,-0.07
2023-01-29T20:45:54.703Z,-0.08
2023-01-29T20:49:58.380Z,-0.09
2023-01-29T20:54:01.731Z,-0.07
2023-01-29T20:58:07.956Z,-0.07
2023-01-29T21:02:14.913Z,-0.07
2023-01-29T21:06:18.087Z,-0.08
2023-01-29T21:10:23.589Z,-0.07
2023-01-29T21:14:27.456Z,-0.06
2023-01-29T21:18:35.042Z,-0.02
2023-01-29T21:22:39.129Z,-0.02
2023-01-29T21:26:42.677Z,-0.01
2023-01-29T21:30:47.881Z,0.02
2023-01-29T21:34:55.539Z,0.05
2023-01-29T21:39:16.903Z,0.07
2023-01-29T21:43:20.393Z,0.07
2023-01-29T21:47:23.767Z,0.11
2023-01-29T21:51:31.158Z,0.11
2023-01-29T21:55:37.286Z,0.15
2023-01-29T21:59:40.558Z,0.15
2023-01-29T22:03:46.120Z,0.16
2023-01-29T22:07:51.938Z,0.18
2023-01-29T22:11:55.485Z,0.20
2023-01-29T22:15:59.162Z,0.23
2023-01-29T22:20:04.461Z,0.28
2023-01-29T22:24:09.123Z,0.30
2023-01-29T22:28:12.266Z,0.32
2023-01-29T22:32:16.126Z,0.35
2023-01-29T22:36:19.693Z,0.36
2023-01-29T22:40:24.403Z,0.38
2023-01-29T22:44:27.639Z,0.40
2023-01-29T22:48:30.828Z,0.41
2023-01-29T22:52:38.737Z,0.45
2023-01-29T22:56:43.518Z,0.48
2023-01-29T23:00:50.748Z,0.50
2023-01-29T23:04:53.852Z,0.49
2023-01-29T23:08:56.852Z,0.49
2023-01-29T23:13:01.438Z,0.50
2023-01-29T23:17:05.217Z,0.52
2023-01-29T23:21:08.933Z,0.54
2023-01-29T23:25:12.177Z,0.55
2023-01-29T23:29:18.308Z,0.55
2023-01-29T23:33:24.429Z,0.56
2023-01-29T23:37:27.256Z,0.57
2023-01-29T23:41:31.593Z,0.60
2023-01-29T23:45:38.421Z,0.60
2023-01-29T23:49:44.120Z,0.62
2023-01-29T23:53:47.331Z,0.62
2023-01-29T23:57:50.869Z,0.63
